createdAt,value
2019-03-08T00:00:46.319Z,98157.41
2019-03-08T00:03:15.395Z,98155.67
2019-03-08T00:05:44.479Z,98168.09
2019-03-08T00:08:13.582Z,98157.25
2019-03-08T00:10:42.604Z,98164.92
2019-03-08T00:13:11.655Z,98176.86
2019-03-08T00:15:40.755Z,98179.44
2019-03-08T00:18:09.812Z,98178.25
2019-03-08T00:20:38.855Z,98191.78
2019-03-08T00:23:10.107Z,98187.75
2019-03-08T00:25:41.140Z,98195.95
2019-03-08T00:28:10.482Z,98199.53
2019-03-08T00:30:39.559Z,98205.19
2019-03-08T00:33:08.644Z,98203.32
2019-03-08T00:35:39.814Z,98211.34
2019-03-08T00:38:11.686Z,98221.28
2019-03-08T00:40:40.714Z,98220.81
2019-03-08T00:43:09.811Z,98221.72
2019-03-08T00:45:40.302Z,98231.52
2019-03-08T00:48:09.337Z,98244.02
2019-03-08T00:50:38.454Z,98246.65
2019-03-08T00:53:09.037Z,98246.59
2019-03-08T00:55:38.275Z,98249.29
2019-03-08T00:58:09.328Z,98245.12
2019-03-08T01:00:38.389Z,98250.19
2019-03-08T01:03:07.445Z,98250.00
2019-03-08T01:05:36.527Z,98257.90
2019-03-08T01:08:05.525Z,98261.09
2019-03-08T01:10:34.599Z,98263.31
2019-03-08T01:13:03.636Z,98267.98
2019-03-08T01:15:32.729Z,98263.86
2019-03-08T01:18:01.739Z,98272.41
2019-03-08T01:20:30.848Z,98272.16
2019-03-08T01:22:59.921Z,98284.06
2019-03-08T01:25:28.954Z,98282.45
2019-03-08T01:28:02.921Z,98290.88
2019-03-08T01:30:32.171Z,98283.82
2019-03-08T01:33:01.165Z,98298.04
2019-03-08T01:35:31.858Z,98300.98
2019-03-08T01:38:00.879Z,98298.86
2019-03-08T01:40:29.961Z,98300.44
2019-03-08T01:42:59.040Z,98302.39
2019-03-08T01:45:28.095Z,98311.47
2019-03-08T01:47:57.134Z,98310.58
2019-03-08T01:50:26.446Z,98317.05
2019-03-08T01:52:55.482Z,98316.16
2019-03-08T01:55:24.524Z,98312.96
2019-03-08T01:57:53.558Z,98316.37
2019-03-08T02:00:22.640Z,98314.76
2019-03-08T02:02:51.704Z,98323.78
2019-03-08T02:05:20.965Z,98322.20
2019-03-08T02:07:50.084Z,98315.05
2019-03-08T02:10:19.138Z,98329.45
2019-03-08T02:12:48.150Z,98323.66
2019-03-08T02:15:17.201Z,98326.03
2019-03-08T02:17:46.226Z,98322.63
2019-03-08T02:20:19.484Z,98322.29
2019-03-08T02:22:48.564Z,98324.42
2019-03-08T02:25:18.575Z,98314.84
2019-03-08T02:27:47.689Z,98313.52
2019-03-08T02:30:17.064Z,98320.55
2019-03-08T02:32:46.323Z,98315.09
2019-03-08T02:35:16.466Z,98324.08
2019-03-08T02:37:45.531Z,98324.00
2019-03-08T02:40:31.381Z,98324.16
2019-03-08T02:43:00.694Z,98325.27
2019-03-08T02:45:30.789Z,98334.73
2019-03-08T02:47:59.824Z,98328.81
2019-03-08T02:50:28.893Z,98336.44
2019-03-08T02:52:57.991Z,98337.63
2019-03-08T02:55:27.011Z,98332.09
2019-03-08T02:57:56.062Z,98333.45
2019-03-08T03:00:26.649Z,98336.09
2019-03-08T03:02:55.714Z,98336.44
2019-03-08T03:05:24.729Z,98330.81
2019-03-08T03:07:53.767Z,98329.23
2019-03-08T03:10:22.990Z,98336.56
2019-03-08T03:12:52.142Z,98346.64
2019-03-08T03:15:21.212Z,98348.51
2019-03-08T03:17:50.306Z,98344.05
2019-03-08T03:20:19.371Z,98347.33
2019-03-08T03:22:48.430Z,98355.23
2019-03-08T03:25:17.447Z,98347.63
2019-03-08T03:27:46.495Z,98356.48
2019-03-08T03:30:15.615Z,98360.06
2019-03-08T03:32:44.698Z,98361.38
2019-03-08T03:35:13.754Z,98369.22
2019-03-08T03:37:42.771Z,98364.56
2019-03-08T03:40:12.425Z,98366.55
2019-03-08T03:42:41.438Z,98370.28
2019-03-08T03:45:10.930Z,98367.64
2019-03-08T03:47:40.008Z,98371.95
2019-03-08T03:50:10.255Z,98373.83
2019-03-08T03:52:39.566Z,98378.11
2019-03-08T03:55:09.112Z,98381.20
2019-03-08T03:57:38.143Z,98391.55
2019-03-08T04:00:08.478Z,98384.42
2019-03-08T04:02:37.548Z,98398.05
2019-03-08T04:05:07.258Z,98389.80
2019-03-08T04:07:36.265Z,98402.56
2019-03-08T04:10:05.866Z,98402.91
2019-03-08T04:12:35.073Z,98400.55
2019-03-08T04:15:04.397Z,98408.45
2019-03-08T04:17:33.400Z,98403.67
2019-03-08T04:20:02.745Z,98415.96
2019-03-08T04:22:31.787Z,98415.33
2019-03-08T04:25:00.845Z,98422.22
2019-03-08T04:27:29.980Z,98431.89
2019-03-08T04:29:59.032Z,98426.20
2019-03-08T04:32:28.078Z,98428.28
2019-03-08T04:34:57.350Z,98440.60
2019-03-08T04:37:26.388Z,98437.39
2019-03-08T04:39:55.474Z,98435.89
2019-03-08T04:42:24.514Z,98444.66
2019-03-08T04:44:53.609Z,98454.49
2019-03-08T04:47:22.707Z,98459.42
2019-03-08T04:49:51.827Z,98455.97
2019-03-08T04:52:20.854Z,98456.03
2019-03-08T04:54:50.880Z,98455.63
2019-03-08T04:57:19.928Z,98463.70
2019-03-08T04:59:49.148Z,98459.71
2019-03-08T05:02:18.248Z,98469.20
2019-03-08T05:04:47.342Z,98463.73
2019-03-08T05:07:16.392Z,98473.73
2019-03-08T05:09:45.450Z,98470.55
2019-03-08T05:12:17.247Z,98477.31
2019-03-08T05:14:46.282Z,98479.63
2019-03-08T05:17:15.557Z,98479.98
2019-03-08T05:19:44.622Z,98479.53
2019-03-08T05:22:13.714Z,98480.30
2019-03-08T05:24:42.726Z,98485.03
2019-03-08T05:27:13.631Z,98483.47
2019-03-08T05:29:42.694Z,98485.14
2019-03-08T05:32:11.777Z,98488.44
2019-03-08T05:34:40.818Z,98488.81
2019-03-08T05:37:09.871Z,98481.20
2019-03-08T05:39:38.870Z,98500.88
2019-03-08T05:42:07.910Z,98500.53
2019-03-08T05:44:36.965Z,98496.84
2019-03-08T05:47:06.057Z,98510.21
2019-03-08T05:49:35.161Z,98507.57
2019-03-08T05:52:04.196Z,98525.61
2019-03-08T05:54:33.209Z,98521.02
2019-03-08T05:57:02.258Z,98516.06
2019-03-08T05:59:31.275Z,98525.36
2019-03-08T06:02:00.334Z,98530.31
2019-03-08T06:04:29.422Z,98532.33
2019-03-08T06:06:58.554Z,98523.86
2019-03-08T06:09:27.577Z,98534.89
2019-03-08T06:11:56.684Z,98534.89
2019-03-08T06:14:25.774Z,98544.41
2019-03-08T06:16:54.806Z,98537.95
2019-03-08T06:19:23.839Z,98542.44
2019-03-08T06:21:52.969Z,98544.70
2019-03-08T06:24:21.966Z,98542.16
2019-03-08T06:26:51.095Z,98550.27
2019-03-08T06:29:20.207Z,98548.94
2019-03-08T06:31:49.303Z,98547.75
2019-03-08T06:34:18.353Z,98544.86
2019-03-08T06:36:48.963Z,98561.11
2019-03-08T06:39:19.074Z,98564.75
2019-03-08T06:41:48.126Z,98567.49
2019-03-08T06:44:19.237Z,98566.30
2019-03-08T06:46:48.328Z,98574.54
2019-03-08T06:49:17.405Z,98577.33
2019-03-08T06:51:46.431Z,98583.55
2019-03-08T06:54:15.494Z,98590.87
2019-03-08T06:56:44.572Z,98586.22
2019-03-08T06:59:36.554Z,98593.55
2019-03-08T07:02:05.647Z,98592.56
2019-03-08T07:04:36.667Z,98596.31
2019-03-08T07:07:05.727Z,98605.00
2019-03-08T07:09:35.174Z,98613.34
2019-03-08T07:12:06.113Z,98622.62
2019-03-08T07:14:35.185Z,98629.16
2019-03-08T07:17:04.275Z,98639.38
2019-03-08T07:19:40.756Z,98525.40
2019-03-08T07:22:10.744Z,98644.19
2019-03-08T07:25:06.148Z,98657.05
2019-03-08T07:28:00.267Z,98658.27
2019-03-08T07:30:45.226Z,98670.19
2019-03-08T07:33:32.180Z,98666.16
2019-03-08T07:36:35.535Z,98675.86
2019-03-08T07:39:22.371Z,98681.50
2019-03-08T07:42:04.756Z,98689.97
2019-03-08T07:44:43.382Z,98693.69
2019-03-08T07:47:34.289Z,98703.27
2019-03-08T07:50:34.677Z,98713.89
2019-03-08T07:53:10.745Z,98720.55
2019-03-08T07:55:52.493Z,98728.87
2019-03-08T07:58:55.779Z,98723.58
2019-03-08T08:01:30.302Z,98724.33
2019-03-08T08:04:18.335Z,98730.72
2019-03-08T08:06:53.752Z,98733.53
2019-03-08T08:09:38.639Z,98737.88
2019-03-08T08:12:29.492Z,98742.70
2019-03-08T08:15:04.639Z,98747.17
2019-03-08T08:17:56.474Z,98748.27
2019-03-08T08:20:50.882Z,98751.36
2019-03-08T08:23:34.072Z,98745.81
2019-03-08T08:26:03.003Z,98756.45
2019-03-08T08:28:55.912Z,98766.70
2019-03-08T08:31:59.399Z,98768.55
2019-03-08T08:34:56.542Z,98768.45
2019-03-08T08:37:41.775Z,98777.64
2019-03-08T08:40:18.364Z,98784.49
2019-03-08T08:43:12.624Z,98793.78
2019-03-08T08:46:05.091Z,98794.97
2019-03-08T08:48:53.092Z,98802.63
2019-03-08T08:51:39.847Z,98816.34
2019-03-08T08:54:18.836Z,98815.12
2019-03-08T08:57:09.897Z,98822.39
2019-03-08T08:59:47.163Z,98828.92
2019-03-08T09:02:37.890Z,98830.64
2019-03-08T09:05:25.639Z,98840.63
2019-03-08T09:08:20.125Z,98838.41
2019-03-08T09:10:55.646Z,98840.13
2019-03-08T09:13:49.766Z,98850.18
2019-03-08T09:16:36.631Z,98857.25
2019-03-08T09:19:15.660Z,98848.93
2019-03-08T09:22:00.758Z,98843.68
2019-03-08T09:24:35.842Z,98844.75
2019-03-08T09:27:30.170Z,98847.72
2019-03-08T09:30:30.328Z,98863.64
2019-03-08T09:33:07.429Z,98867.06
2019-03-08T09:35:57.049Z,98869.03
2019-03-08T09:38:43.635Z,98877.89
2019-03-08T09:41:29.827Z,98881.47
2019-03-08T09:44:17.796Z,98891.02
2019-03-08T09:46:54.747Z,98901.33
2019-03-08T09:49:45.720Z,98899.28
2019-03-08T09:52:19.460Z,98905.14
2019-03-08T09:54:54.254Z,98909.31
2019-03-08T09:57:57.290Z,98914.75
2019-03-08T10:00:57.014Z,98920.30
2019-03-08T10:03:47.067Z,98890.56
2019-03-08T10:06:35.126Z,98920.56
2019-03-08T10:09:09.719Z,98927.98
2019-03-08T10:11:52.386Z,98929.42
2019-03-08T10:14:36.668Z,98931.12
2019-03-08T10:17:43.050Z,98937.94
2019-03-08T10:20:32.675Z,98940.96
2019-03-08T10:23:19.615Z,98944.70
2019-03-08T10:26:00.575Z,98944.09
2019-03-08T10:28:39.572Z,98957.76
2019-03-08T10:31:30.806Z,98956.23
2019-03-08T10:34:25.157Z,98961.02
2019-03-08T10:37:18.029Z,98965.24
2019-03-08T10:40:10.045Z,98963.05
2019-03-08T10:43:00.787Z,98969.91
2019-03-08T10:45:47.993Z,98971.45
2019-03-08T10:48:29.603Z,98974.84
2019-03-08T10:51:07.604Z,98963.33
2019-03-08T10:53:41.613Z,98978.00
2019-03-08T10:56:25.791Z,98989.98
2019-03-08T10:59:11.763Z,98973.13
2019-03-08T11:02:02.796Z,98991.92
2019-03-08T11:04:40.065Z,98989.56
2019-03-08T11:07:27.269Z,98986.12
2019-03-08T11:10:21.875Z,98998.52
2019-03-08T11:13:05.190Z,99007.97
2019-03-08T11:15:51.852Z,99006.73
2019-03-08T11:18:45.701Z,99006.80
2019-03-08T11:21:49.281Z,99014.50
2019-03-08T11:24:30.841Z,99011.20
2019-03-08T11:27:25.779Z,98997.87
2019-03-08T11:30:13.763Z,99006.25
2019-03-08T11:33:13.900Z,99015.24
2019-03-08T11:36:07.219Z,99021.27
2019-03-08T11:38:57.682Z,99032.80
2019-03-08T11:41:48.828Z,99030.88
2019-03-08T11:44:27.154Z,99034.91
2019-03-08T11:47:14.025Z,99047.80
2019-03-08T11:50:08.075Z,99037.22
2019-03-08T11:52:46.799Z,99040.37
2019-03-08T11:55:29.919Z,99036.70
2019-03-08T11:58:20.698Z,99041.63
2019-03-08T12:01:02.956Z,99046.22
2019-03-08T12:03:57.316Z,99040.34
2019-03-08T12:06:34.829Z,99046.00
2019-03-08T12:09:23.019Z,99043.68
2019-03-08T12:12:29.065Z,99040.44
2019-03-08T12:15:15.964Z,99039.62
2019-03-08T12:17:58.354Z,99036.11
2019-03-08T12:20:43.146Z,99029.47
2019-03-08T12:23:31.004Z,99045.38
2019-03-08T12:26:29.562Z,99038.63
2019-03-08T12:29:20.367Z,99037.24
2019-03-08T12:32:14.442Z,99043.38
2019-03-08T12:35:08.582Z,99048.16
2019-03-08T12:38:05.875Z,99047.84
2019-03-08T12:40:52.641Z,99048.20
2019-03-08T12:43:38.475Z,99065.56
2019-03-08T12:46:14.649Z,99068.69
2019-03-08T12:48:52.676Z,99067.02
2019-03-08T12:51:32.370Z,99065.19
2019-03-08T12:54:26.570Z,99060.24
2019-03-08T12:57:13.483Z,99058.29
2019-03-08T12:59:50.227Z,99063.42
2019-03-08T13:02:41.213Z,99072.48
2019-03-08T13:05:29.250Z,99071.16
2019-03-08T13:08:35.391Z,99068.97
2019-03-08T13:11:04.508Z,99058.52
2019-03-08T13:13:33.542Z,99069.67
2019-03-08T13:16:02.619Z,99062.25
2019-03-08T13:18:31.649Z,99064.30
2019-03-08T13:21:00.736Z,99054.08
2019-03-08T13:23:29.776Z,99064.70
2019-03-08T13:25:58.821Z,99065.03
2019-03-08T13:28:27.831Z,99071.88
2019-03-08T13:30:56.920Z,99080.90
2019-03-08T13:33:25.980Z,99069.13
2019-03-08T13:35:55.041Z,99082.67
2019-03-08T13:38:24.120Z,99087.97
2019-03-08T13:40:53.149Z,99088.17
2019-03-08T13:43:22.232Z,99089.59
2019-03-08T13:45:51.353Z,99087.05
2019-03-08T13:48:20.384Z,99085.35
2019-03-08T13:50:49.450Z,99087.62
2019-03-08T13:53:18.539Z,99096.39
2019-03-08T13:55:47.591Z,99096.75
2019-03-08T13:58:16.622Z,99100.94
2019-03-08T14:00:47.628Z,99096.08
2019-03-08T14:03:18.750Z,99107.13
2019-03-08T14:05:47.935Z,99100.59
2019-03-08T14:08:17.065Z,99115.89
2019-03-08T14:10:46.184Z,99115.45
2019-03-08T14:13:15.201Z,99113.00
2019-03-08T14:15:44.272Z,99113.75
2019-03-08T14:18:14.947Z,99111.34
2019-03-08T14:20:44.007Z,99113.05
2019-03-08T14:23:13.114Z,99104.10
2019-03-08T14:25:42.177Z,99098.73
2019-03-08T14:28:11.543Z,99096.42
2019-03-08T14:30:47.271Z,99093.57
2019-03-08T14:33:16.361Z,99093.85
2019-03-08T14:35:45.434Z,99097.70
2019-03-08T14:38:15.776Z,99096.61
2019-03-08T14:40:59.719Z,99095.92
2019-03-08T14:43:35.336Z,99091.88
2019-03-08T14:46:21.020Z,99081.59
2019-03-08T14:48:49.852Z,99072.85
2019-03-08T14:51:18.923Z,99080.58
2019-03-08T14:53:47.952Z,99082.29
2019-03-08T14:56:18.531Z,99082.50
2019-03-08T14:58:47.621Z,99080.23
2019-03-08T15:01:16.755Z,99073.27
2019-03-08T15:03:45.862Z,99069.34
2019-03-08T15:06:14.965Z,99066.40
2019-03-08T15:08:44.005Z,99067.84
2019-03-08T15:11:13.098Z,99062.77
2019-03-08T15:13:42.449Z,99057.95
2019-03-08T15:16:12.542Z,99059.44
2019-03-08T15:18:41.624Z,99053.66
2019-03-08T15:21:10.682Z,99052.89
2019-03-08T15:23:39.788Z,99050.47
2019-03-08T15:26:08.882Z,99055.31
2019-03-08T15:28:38.034Z,99059.94
2019-03-08T15:31:07.024Z,99056.22
2019-03-08T15:33:37.425Z,99060.29
2019-03-08T15:36:06.490Z,99055.44
2019-03-08T15:38:35.945Z,99047.55
2019-03-08T15:41:05.006Z,99052.70
2019-03-08T15:43:36.191Z,99052.91
2019-03-08T15:46:05.318Z,99042.72
2019-03-08T15:48:34.497Z,99043.42
2019-03-08T15:51:04.492Z,99049.42
2019-03-08T15:53:44.896Z,99052.50
2019-03-08T15:56:12.921Z,99049.98
2019-03-08T15:58:46.307Z,99055.37
2019-03-08T16:01:19.640Z,99063.84
2019-03-08T16:04:45.938Z,99065.34
2019-03-08T16:07:27.077Z,99066.28
2019-03-08T16:10:02.059Z,99067.83
2019-03-08T16:12:33.438Z,99075.70
2019-03-08T16:15:04.858Z,99071.94
2019-03-08T16:17:33.966Z,99075.78
2019-03-08T16:20:03.946Z,99080.61
2019-03-08T16:22:35.451Z,99081.77
2019-03-08T16:25:06.566Z,99074.16
2019-03-08T16:27:35.346Z,99081.53
2019-03-08T16:30:09.713Z,99082.19
2019-03-08T16:32:56.494Z,99077.97
2019-03-08T16:35:29.695Z,99072.47
2019-03-08T16:38:32.873Z,99075.95
2019-03-08T16:41:21.062Z,99090.88
2019-03-08T16:44:12.720Z,99084.30
2019-03-08T16:47:12.069Z,99085.10
2019-03-08T16:50:01.385Z,99080.36
2019-03-08T16:52:47.787Z,99088.41
2019-03-08T16:55:32.696Z,99088.06
2019-03-08T16:58:14.594Z,99083.70
2019-03-08T17:00:53.809Z,99088.59
2019-03-08T17:03:45.310Z,99101.31
2019-03-08T17:06:44.921Z,99094.55
2019-03-08T17:09:28.117Z,99097.75
2019-03-08T17:12:22.187Z,99098.89
2019-03-08T17:15:03.364Z,99103.39
2019-03-08T17:17:41.941Z,99107.72
2019-03-08T17:20:16.030Z,99108.77
2019-03-08T17:22:53.878Z,99118.09
2019-03-08T17:25:35.399Z,99116.59
2019-03-08T17:28:24.108Z,99126.56
2019-03-08T17:31:00.527Z,99119.13
2019-03-08T17:33:35.307Z,99119.30
2019-03-08T17:36:12.019Z,99124.70
2019-03-08T17:38:50.084Z,99124.17
2019-03-08T17:41:36.992Z,99119.11
2019-03-08T17:44:22.929Z,99116.23
2019-03-08T17:47:09.794Z,99116.39
2019-03-08T17:50:08.124Z,99116.64
2019-03-08T17:53:06.181Z,99114.73
2019-03-08T17:55:54.317Z,99120.88
2019-03-08T17:58:47.969Z,99124.52
2019-03-08T18:01:51.483Z,99124.97
2019-03-08T18:04:33.356Z,99128.38
2019-03-08T18:07:25.594Z,99130.07
2019-03-08T18:10:13.670Z,99132.45
2019-03-08T18:12:59.308Z,99128.19
2019-03-08T18:15:46.314Z,99124.34
2019-03-08T18:18:49.745Z,99130.50
2019-03-08T18:21:29.131Z,99128.81
2019-03-08T18:24:23.785Z,99142.49
2019-03-08T18:27:21.481Z,99134.70
2019-03-08T18:30:03.109Z,99134.81
2019-03-08T18:32:52.626Z,99137.20
2019-03-08T18:35:53.023Z,99139.00
2019-03-08T18:38:41.178Z,99150.31
2019-03-08T18:41:24.147Z,99148.14
2019-03-08T18:44:03.857Z,99156.31
2019-03-08T18:46:47.134Z,99160.53
2019-03-08T18:49:38.406Z,99162.75
2019-03-08T18:52:21.698Z,99167.08
2019-03-08T18:55:18.856Z,99166.14
2019-03-08T18:57:57.444Z,99165.43
2019-03-08T19:00:44.280Z,99169.52
2019-03-08T19:03:38.061Z,99171.44
2019-03-08T19:06:19.251Z,99161.73
2019-03-08T19:09:07.296Z,99161.98
2019-03-08T19:12:01.831Z,99159.69
2019-03-08T19:14:49.886Z,99168.48
2019-03-08T19:17:46.190Z,99169.55
2019-03-08T19:20:44.020Z,99175.45
2019-03-08T19:23:21.298Z,99184.95
2019-03-08T19:26:14.414Z,99188.41
2019-03-08T19:28:54.576Z,99185.05
2019-03-08T19:31:47.444Z,99179.75
2019-03-08T19:34:53.539Z,99182.40
2019-03-08T19:37:41.131Z,99174.93
2019-03-08T19:40:31.935Z,99172.05
2019-03-08T19:43:24.198Z,99179.13
2019-03-08T19:46:13.311Z,99168.63
2019-03-08T19:49:09.012Z,99166.22
2019-03-08T19:51:57.350Z,99167.42
2019-03-08T19:54:45.326Z,99169.45
2019-03-08T19:57:24.571Z,99166.07
2019-03-08T20:00:12.644Z,99181.22
2019-03-08T20:02:49.875Z,99178.84
2019-03-08T20:05:31.348Z,99176.08
2019-03-08T20:08:09.426Z,99187.75
2019-03-08T20:10:56.186Z,99187.25
2019-03-08T20:13:53.325Z,99183.55
2019-03-08T20:16:44.480Z,99180.75
2019-03-08T20:19:21.091Z,99185.84
2019-03-08T20:22:03.018Z,99187.02
2019-03-08T20:25:06.355Z,99137.90
2019-03-08T20:28:00.551Z,99180.63
2019-03-08T20:31:07.635Z,99177.63
2019-03-08T20:34:01.430Z,99168.63
2019-03-08T20:36:49.534Z,99170.09
2019-03-08T20:39:32.939Z,99164.45
2019-03-08T20:42:10.262Z,99161.09
2019-03-08T20:44:52.994Z,99163.48
2019-03-08T20:47:25.488Z,99162.77
2019-03-08T20:49:56.738Z,99170.11
2019-03-08T20:52:25.785Z,99180.59
2019-03-08T20:54:56.003Z,99175.19
2019-03-08T20:57:25.326Z,99169.30
2019-03-08T20:59:54.440Z,99169.30
2019-03-08T21:02:25.676Z,99170.75
2019-03-08T21:04:54.830Z,99164.26
2019-03-08T21:07:23.979Z,99156.80
2019-03-08T21:09:53.044Z,99159.81
2019-03-08T21:12:22.158Z,99151.47
2019-03-08T21:14:51.244Z,99152.59
2019-03-08T21:17:20.484Z,99147.92
2019-03-08T21:19:49.532Z,99154.41
2019-03-08T21:22:18.652Z,99155.00
2019-03-08T21:24:47.684Z,99150.33
2019-03-08T21:27:20.375Z,99149.25
2019-03-08T21:29:49.820Z,99150.81
2019-03-08T21:32:18.950Z,99157.78
2019-03-08T21:34:49.258Z,99153.44
2019-03-08T21:37:18.310Z,99154.89
2019-03-08T21:39:47.436Z,99145.75
2019-03-08T21:42:16.767Z,99155.48
2019-03-08T21:44:45.932Z,99150.81
2019-03-08T21:47:16.769Z,99142.64
2019-03-08T21:49:45.879Z,99140.95
2019-03-08T21:52:14.952Z,99147.09
2019-03-08T21:54:44.312Z,99138.66
2019-03-08T21:57:13.352Z,99132.55
2019-03-08T21:59:42.430Z,99138.19
2019-03-08T22:02:11.473Z,99133.85
2019-03-08T22:04:44.018Z,99127.73
2019-03-08T22:07:13.488Z,99127.20
2019-03-08T22:09:56.701Z,99125.20
2019-03-08T22:12:25.763Z,99112.92
2019-03-08T22:14:56.000Z,99113.28
2019-03-08T22:17:25.183Z,99107.61
2019-03-08T22:19:54.320Z,99102.81
2019-03-08T22:22:23.343Z,99100.91
2019-03-08T22:24:52.435Z,99095.73
2019-03-08T22:27:22.591Z,99092.12
2019-03-08T22:29:51.634Z,99089.13
2019-03-08T22:32:20.709Z,99079.61
2019-03-08T22:34:49.836Z,99082.30
2019-03-08T22:37:18.891Z,98930.45
2019-03-08T22:39:47.927Z,99071.08
2019-03-08T22:42:19.243Z,99070.23
2019-03-08T22:44:48.394Z,99065.14
2019-03-08T22:47:17.469Z,99061.34
2019-03-08T22:49:46.495Z,99057.88
2019-03-08T22:52:15.558Z,99059.33
2019-03-08T22:54:44.572Z,99055.83
2019-03-08T22:57:13.841Z,99058.09
2019-03-08T22:59:42.919Z,99061.23
2019-03-08T23:02:13.125Z,99059.80
2019-03-08T23:04:42.961Z,99052.06
2019-03-08T23:07:12.107Z,99048.83
2019-03-08T23:09:41.217Z,99044.75
2019-03-08T23:12:10.739Z,99038.61
2019-03-08T23:14:39.864Z,99044.28
2019-03-08T23:17:08.973Z,99043.70
2019-03-08T23:19:37.963Z,99032.61
2019-03-08T23:22:07.266Z,99026.35
2019-03-08T23:24:36.280Z,99022.30
2019-03-08T23:27:12.458Z,99022.30
2019-03-08T23:30:04.861Z,99024.56
2019-03-08T23:32:39.112Z,99026.70
2019-03-08T23:35:08.270Z,99029.47
2019-03-08T23:37:37.316Z,99033.23
2019-03-08T23:40:07.701Z,99028.65
2019-03-08T23:42:36.824Z,99027.70
2019-03-08T23:45:06.193Z,99023.47
2019-03-08T23:47:38.340Z,99018.66
2019-03-08T23:50:08.779Z,99011.53
2019-03-08T23:52:37.856Z,99004.84
2019-03-08T23:55:07.443Z,99008.73
2019-03-08T23:57:36.589Z,99010.56
